createdAt,value
2023-03-17T00:01:54.281Z,11.43
2023-03-17T00:04:24.152Z,9.93
2023-03-17T00:06:51.657Z,14.40
2023-03-17T00:09:20.094Z,9.85
2023-03-17T00:11:47.604Z,11.07
2023-03-17T00:14:14.562Z,9.00
2023-03-17T00:16:43.694Z,11.23
2023-03-17T00:19:16.479Z,11.47
2023-03-17T00:21:43.526Z,11.27
2023-03-17T00:24:15.005Z,11.80
2023-03-17T00:26:43.195Z,12.13
2023-03-17T00:29:10.023Z,11.83
2023-03-17T00:31:38.041Z,9.90
2023-03-17T00:34:05.665Z,10.95
2023-03-17T00:36:34.229Z,11.83
2023-03-17T00:39:01.419Z,9.70
2023-03-17T00:41:29.443Z,9.38
2023-03-17T00:43:57.135Z,10.43
2023-03-17T00:46:35.534Z,10.77
2023-03-17T00:49:05.271Z,9.32
2023-03-17T00:51:32.158Z,10.55
2023-03-17T00:53:58.737Z,10.02
2023-03-17T00:56:25.383Z,10.60
2023-03-17T00:58:52.147Z,15.10
2023-03-17T01:01:18.829Z,9.50
2023-03-17T01:03:45.847Z,10.68
2023-03-17T01:06:13.707Z,12.60
2023-03-17T01:08:41.344Z,11.35
2023-03-17T01:11:18.721Z,12.35
2023-03-17T01:13:46.723Z,10.63
2023-03-17T01:16:14.243Z,13.85
2023-03-17T01:18:41.249Z,10.70
2023-03-17T01:21:08.358Z,10.82
2023-03-17T01:23:35.181Z,12.45
2023-03-17T01:26:01.832Z,11.75
2023-03-17T01:28:28.886Z,10.35
2023-03-17T01:30:56.668Z,10.20
2023-03-17T01:33:23.345Z,9.63
2023-03-17T01:35:50.838Z,15.90
2023-03-17T01:38:17.966Z,9.70
2023-03-17T01:40:50.018Z,11.40
2023-03-17T01:43:20.120Z,9.55
2023-03-17T01:46:23.023Z,12.07
2023-03-17T01:49:05.916Z,10.23
2023-03-17T01:52:00.893Z,10.10
2023-03-17T01:54:45.968Z,13.02
2023-03-17T01:57:23.144Z,10.95
2023-03-17T01:59:54.326Z,16.10
2023-03-17T02:02:25.821Z,13.80
2023-03-17T02:04:52.763Z,11.70
2023-03-17T02:07:22.102Z,11.57
2023-03-17T02:09:49.485Z,10.30
2023-03-17T02:12:16.108Z,12.75
2023-03-17T02:14:44.017Z,10.57
2023-03-17T02:17:12.784Z,12.35
2023-03-17T02:19:39.424Z,10.18
2023-03-17T02:22:06.411Z,11.40
2023-03-17T02:24:40.432Z,11.35
2023-03-17T02:27:16.193Z,12.93
2023-03-17T02:29:46.121Z,11.73
2023-03-17T02:32:15.183Z,10.65
2023-03-17T02:34:41.912Z,9.82
2023-03-17T02:37:08.592Z,12.73
2023-03-17T02:39:35.246Z,11.50
2023-03-17T02:42:01.920Z,12.13
2023-03-17T02:44:28.561Z,10.13
2023-03-17T02:46:55.222Z,11.63
2023-03-17T02:49:22.778Z,13.20
2023-03-17T02:51:49.568Z,10.98
2023-03-17T02:54:16.400Z,13.27
2023-03-17T02:56:43.050Z,10.70
2023-03-17T02:59:09.829Z,10.05
2023-03-17T03:01:36.829Z,11.40
2023-03-17T03:04:07.051Z,9.65
2023-03-17T03:06:33.806Z,12.13
2023-03-17T03:09:00.437Z,12.27
2023-03-17T03:11:27.311Z,10.23
2023-03-17T03:13:54.185Z,10.43
2023-03-17T03:16:21.062Z,10.80
2023-03-17T03:18:48.040Z,11.15
2023-03-17T03:21:15.347Z,14.15
2023-03-17T03:23:43.186Z,11.40
2023-03-17T03:26:09.862Z,18.05
2023-03-17T03:28:36.527Z,14.77
2023-03-17T03:31:03.376Z,12.00
2023-03-17T03:33:30.011Z,10.70
2023-03-17T03:35:57.020Z,15.02
2023-03-17T03:38:23.692Z,9.90
2023-03-17T03:40:50.333Z,11.63
2023-03-17T03:43:23.354Z,12.77
2023-03-17T03:45:51.618Z,10.75
2023-03-17T03:48:18.929Z,11.65
2023-03-17T03:50:45.916Z,12.50
2023-03-17T03:53:12.731Z,11.63
2023-03-17T03:55:39.344Z,10.95
2023-03-17T03:58:06.651Z,10.63
2023-03-17T04:00:33.403Z,11.30
2023-03-17T04:03:01.341Z,10.77
2023-03-17T04:05:28.161Z,11.38
2023-03-17T04:07:54.837Z,10.80
2023-03-17T04:10:23.063Z,11.52
2023-03-17T04:12:49.700Z,11.85
2023-03-17T04:15:18.374Z,9.73
2023-03-17T04:17:45.193Z,13.02
2023-03-17T04:20:13.155Z,9.60
2023-03-17T04:22:41.747Z,10.80
2023-03-17T04:25:10.096Z,11.45
2023-03-17T04:27:37.412Z,9.55
2023-03-17T04:30:04.889Z,11.23
2023-03-17T04:32:32.026Z,10.52
2023-03-17T04:37:25.802Z,11.45
2023-03-17T04:39:53.332Z,12.57
2023-03-17T04:42:21.306Z,11.70
2023-03-17T04:44:48.249Z,10.18
2023-03-17T04:47:15.050Z,11.07
2023-03-17T04:49:41.732Z,10.77
2023-03-17T04:52:08.546Z,10.88
2023-03-17T04:54:36.347Z,11.95
2023-03-17T04:57:04.020Z,12.38
2023-03-17T04:59:30.844Z,12.05
2023-03-17T05:01:57.500Z,10.05
2023-03-17T05:04:31.564Z,10.43
2023-03-17T05:07:00.407Z,10.60
2023-03-17T05:09:28.614Z,9.90
2023-03-17T05:11:55.841Z,11.13
2023-03-17T05:14:22.573Z,13.93
2023-03-17T05:16:50.667Z,15.68
2023-03-17T05:19:18.155Z,17.00
2023-03-17T05:21:44.861Z,11.38
2023-03-17T05:24:12.006Z,10.63
2023-03-17T05:26:40.031Z,12.30
2023-03-17T05:29:07.124Z,12.13
2023-03-17T05:31:33.860Z,10.57
2023-03-17T05:34:00.515Z,11.60
2023-03-17T05:36:27.170Z,11.00
2023-03-17T05:38:54.122Z,11.80
2023-03-17T05:41:20.915Z,12.77
2023-03-17T05:43:47.664Z,16.33
2023-03-17T05:46:14.573Z,13.82
2023-03-17T05:48:41.883Z,10.80
2023-03-17T05:51:08.541Z,11.50
2023-03-17T05:53:38.492Z,12.05
2023-03-17T05:56:06.474Z,10.95
2023-03-17T05:58:33.216Z,11.77
2023-03-17T06:01:00.123Z,12.77
2023-03-17T06:03:26.854Z,13.05
2023-03-17T06:05:53.571Z,11.30
2023-03-17T06:08:20.447Z,11.85
2023-03-17T06:10:47.561Z,11.23
2023-03-17T06:13:14.427Z,11.07
2023-03-17T06:15:43.018Z,13.45
2023-03-17T06:18:09.766Z,11.50
2023-03-17T06:20:36.747Z,13.00
2023-03-17T06:23:05.780Z,22.17
2023-03-17T06:25:34.884Z,13.07
2023-03-17T06:28:06.267Z,11.65
2023-03-17T06:30:34.737Z,12.43
2023-03-17T06:33:02.418Z,11.15
2023-03-17T06:35:30.236Z,10.80
2023-03-17T06:37:57.031Z,11.25
2023-03-17T06:40:23.794Z,10.93
2023-03-17T06:42:51.050Z,9.82
2023-03-17T06:45:18.270Z,12.15
2023-03-17T06:47:45.058Z,10.43
2023-03-17T06:50:12.292Z,12.38
2023-03-17T06:52:39.759Z,10.52
2023-03-17T06:55:08.496Z,12.23
2023-03-17T06:57:35.701Z,10.30
2023-03-17T07:00:02.388Z,16.50
2023-03-17T07:02:29.724Z,12.07
2023-03-17T07:04:58.145Z,11.27
2023-03-17T07:07:25.132Z,13.87
2023-03-17T07:09:52.686Z,11.00
2023-03-17T07:12:20.077Z,10.83
2023-03-17T07:14:46.762Z,11.43
2023-03-17T07:17:14.561Z,14.13
2023-03-17T07:19:42.387Z,15.87
2023-03-17T07:22:11.834Z,15.77
2023-03-17T07:24:38.630Z,15.87
2023-03-17T07:27:05.307Z,12.20
2023-03-17T07:29:33.928Z,12.30
2023-03-17T07:32:01.397Z,11.77
2023-03-17T07:34:28.236Z,12.80
2023-03-17T07:36:55.493Z,13.50
2023-03-17T07:39:22.220Z,15.17
2023-03-17T07:41:52.840Z,14.50
2023-03-17T07:44:19.761Z,15.70
2023-03-17T07:46:46.706Z,12.83
2023-03-17T07:49:13.936Z,14.43
2023-03-17T07:51:43.280Z,16.37
2023-03-17T07:54:14.844Z,14.43
2023-03-17T07:56:42.370Z,12.20
2023-03-17T07:59:09.091Z,14.30
2023-03-17T08:01:35.960Z,15.40
2023-03-17T08:04:04.864Z,13.77
2023-03-17T08:06:32.581Z,12.47
2023-03-17T08:08:59.298Z,14.20
2023-03-17T08:11:28.310Z,13.30
2023-03-17T08:13:56.093Z,13.50
2023-03-17T08:16:23.032Z,16.40
2023-03-17T08:18:49.897Z,17.07
2023-03-17T08:21:16.720Z,12.90
2023-03-17T08:23:43.688Z,16.00
2023-03-17T08:26:10.411Z,14.20
2023-03-17T08:28:37.383Z,13.60
2023-03-17T08:31:18.928Z,13.57
2023-03-17T08:33:48.426Z,12.43
2023-03-17T08:36:16.381Z,14.33
2023-03-17T08:38:44.800Z,12.17
2023-03-17T08:41:15.241Z,16.40
2023-03-17T08:43:43.857Z,13.87
2023-03-17T08:46:25.932Z,14.47
2023-03-17T08:48:54.962Z,13.70
2023-03-17T08:51:24.596Z,12.90
2023-03-17T08:53:52.977Z,14.50
2023-03-17T08:56:19.913Z,19.50
2023-03-17T08:58:47.583Z,16.67
2023-03-17T09:01:15.250Z,14.80
2023-03-17T09:03:42.597Z,12.60
2023-03-17T09:06:12.251Z,16.20
2023-03-17T09:08:44.574Z,11.80
2023-03-17T09:11:14.715Z,14.30
2023-03-17T09:13:41.569Z,15.57
2023-03-17T09:16:08.862Z,13.27
2023-03-17T09:18:35.708Z,14.27
2023-03-17T09:21:05.771Z,14.90
2023-03-17T09:23:33.536Z,16.30
2023-03-17T09:26:00.790Z,14.60
2023-03-17T09:28:27.684Z,13.80
2023-03-17T09:30:59.272Z,14.90
2023-03-17T09:33:25.923Z,13.30
2023-03-17T09:35:54.180Z,13.20
2023-03-17T09:38:22.446Z,12.90
2023-03-17T09:41:13.524Z,16.63
2023-03-17T09:43:52.782Z,15.07
2023-03-17T09:46:38.505Z,15.70
2023-03-17T09:49:19.365Z,14.07
2023-03-17T09:51:47.171Z,13.00
2023-03-17T09:54:26.583Z,13.50
2023-03-17T09:57:01.749Z,15.20
2023-03-17T09:59:30.202Z,13.10
2023-03-17T10:01:57.842Z,14.93
2023-03-17T10:04:25.158Z,12.30
2023-03-17T10:07:01.126Z,14.67
2023-03-17T10:09:32.036Z,14.23
2023-03-17T10:12:12.918Z,17.13
2023-03-17T10:14:54.621Z,14.63
2023-03-17T10:17:26.105Z,13.70
2023-03-17T10:20:08.573Z,17.10
2023-03-17T10:22:59.345Z,15.23
2023-03-17T10:25:31.999Z,14.60
2023-03-17T10:28:28.838Z,12.93
2023-03-17T10:31:18.247Z,14.00
2023-03-17T10:33:49.626Z,13.43
2023-03-17T10:36:17.987Z,15.97
2023-03-17T10:38:52.569Z,12.57
2023-03-17T10:41:19.776Z,14.53
2023-03-17T10:43:50.636Z,12.47
2023-03-17T10:46:25.876Z,14.40
2023-03-17T10:49:07.591Z,12.47
2023-03-17T10:51:37.062Z,19.00
2023-03-17T10:54:10.563Z,11.70
2023-03-17T10:56:42.149Z,14.70
2023-03-17T10:59:19.548Z,14.10
2023-03-17T11:01:57.274Z,13.13
2023-03-17T11:04:37.630Z,12.20
2023-03-17T11:07:15.400Z,14.60
2023-03-17T11:09:42.362Z,14.73
2023-03-17T11:12:34.206Z,14.13
2023-03-17T11:15:03.867Z,13.30
2023-03-17T11:17:49.836Z,15.27
2023-03-17T11:20:26.325Z,12.93
2023-03-17T11:23:24.152Z,14.73
2023-03-17T11:26:22.762Z,13.60
2023-03-17T11:29:01.472Z,16.70
2023-03-17T11:31:37.859Z,15.47
2023-03-17T11:34:13.961Z,13.90
2023-03-17T11:36:48.405Z,20.93
2023-03-17T11:39:21.890Z,19.13
2023-03-17T11:42:24.311Z,13.27
2023-03-17T11:45:10.835Z,17.03
2023-03-17T11:48:02.865Z,17.93
2023-03-17T11:50:37.146Z,13.33
2023-03-17T11:53:07.403Z,21.97
2023-03-17T11:55:37.856Z,14.30
2023-03-17T11:58:38.677Z,13.70
2023-03-17T12:01:09.821Z,14.63
2023-03-17T12:03:50.648Z,12.43
2023-03-17T12:06:36.151Z,13.77
2023-03-17T12:09:52.877Z,12.70
2023-03-17T12:12:27.066Z,21.40
2023-03-17T12:14:56.961Z,14.20
2023-03-17T12:18:07.989Z,13.17
2023-03-17T12:20:57.711Z,12.40
2023-03-17T12:23:58.854Z,11.70
2023-03-17T12:26:41.556Z,12.17
2023-03-17T12:29:17.906Z,12.00
2023-03-17T12:31:52.007Z,13.07
2023-03-17T12:34:24.091Z,16.90
2023-03-17T12:36:51.486Z,12.87
2023-03-17T12:39:33.069Z,13.93
2023-03-17T12:42:10.958Z,14.03
2023-03-17T12:44:50.185Z,13.70
2023-03-17T12:47:49.713Z,12.50
2023-03-17T12:50:31.712Z,12.30
2023-03-17T12:53:26.570Z,13.87
2023-03-17T12:55:56.807Z,12.97
2023-03-17T12:58:39.505Z,14.77
2023-03-17T13:01:19.825Z,18.33
2023-03-17T13:04:12.725Z,12.67
2023-03-17T13:06:55.456Z,12.70
2023-03-17T13:09:31.887Z,14.50
2023-03-17T13:12:01.082Z,15.90
2023-03-17T13:14:42.638Z,17.83
2023-03-17T13:17:21.670Z,12.23
2023-03-17T13:20:12.774Z,13.53
2023-03-17T13:22:59.735Z,12.83
2023-03-17T13:25:35.510Z,14.03
2023-03-17T13:28:14.921Z,18.13
2023-03-17T13:30:55.941Z,13.20
2023-03-17T13:33:31.185Z,19.80
2023-03-17T13:36:14.310Z,13.67
2023-03-17T13:38:48.633Z,12.17
2023-03-17T13:41:35.697Z,12.07
2023-03-17T13:44:30.894Z,14.00
2023-03-17T13:47:18.520Z,11.83
2023-03-17T13:49:59.624Z,19.00
2023-03-17T13:52:46.468Z,14.63
2023-03-17T13:55:23.397Z,13.07
2023-03-17T13:58:17.896Z,12.30
2023-03-17T14:00:48.909Z,18.57
2023-03-17T14:03:22.359Z,12.00
2023-03-17T14:05:53.298Z,11.80
2023-03-17T14:08:31.758Z,25.53
2023-03-17T14:11:01.612Z,14.07
2023-03-17T14:13:41.370Z,11.97
2023-03-17T14:16:21.274Z,13.43
2023-03-17T14:18:51.710Z,14.53
2023-03-17T14:21:35.215Z,11.60
2023-03-17T14:24:14.570Z,12.70
2023-03-17T14:26:41.494Z,15.30
2023-03-17T14:29:16.069Z,11.47
2023-03-17T14:31:48.056Z,11.40
2023-03-17T14:34:16.028Z,12.03
2023-03-17T14:36:43.296Z,12.57
2023-03-17T14:39:23.006Z,14.17
2023-03-17T14:42:01.672Z,12.50
2023-03-17T14:44:35.689Z,16.27
2023-03-17T14:47:04.331Z,14.10
2023-03-17T14:49:33.193Z,12.53
2023-03-17T14:52:00.087Z,11.33
2023-03-17T14:54:35.997Z,13.20
2023-03-17T14:57:07.047Z,13.10
2023-03-17T14:59:54.873Z,16.60
2023-03-17T15:02:34.363Z,16.50
2023-03-17T15:05:22.138Z,11.20
2023-03-17T15:07:48.883Z,11.37
2023-03-17T15:10:18.515Z,11.87
2023-03-17T15:12:49.208Z,14.73
2023-03-17T15:15:23.498Z,13.17
2023-03-17T15:17:58.779Z,10.17
2023-03-17T15:20:25.722Z,11.93
2023-03-17T15:23:17.051Z,12.67
2023-03-17T15:25:44.666Z,11.90
2023-03-17T15:28:18.887Z,11.37
2023-03-17T15:30:54.659Z,14.10
2023-03-17T15:33:37.457Z,11.60
2023-03-17T15:36:05.251Z,11.90
2023-03-17T15:38:33.043Z,11.40
2023-03-17T15:40:59.644Z,13.23
2023-03-17T15:43:26.216Z,12.23
2023-03-17T15:46:01.273Z,15.50
2023-03-17T15:48:31.323Z,12.73
2023-03-17T15:51:00.049Z,12.03
2023-03-17T15:53:27.449Z,12.17
2023-03-17T15:55:54.480Z,11.37
2023-03-17T15:58:21.659Z,10.90
2023-03-17T16:00:53.321Z,11.23
2023-03-17T16:03:29.547Z,11.87
2023-03-17T16:05:56.276Z,11.53
2023-03-17T16:08:23.135Z,14.83
2023-03-17T16:10:49.836Z,11.43
2023-03-17T16:13:16.428Z,11.33
2023-03-17T16:15:47.144Z,11.70
2023-03-17T16:18:18.115Z,11.90
2023-03-17T16:20:47.668Z,15.30
2023-03-17T16:23:18.450Z,10.33
2023-03-17T16:25:46.044Z,13.17
2023-03-17T16:28:14.715Z,14.57
2023-03-17T16:30:42.018Z,21.33
2023-03-17T16:33:19.478Z,16.87
2023-03-17T16:35:48.602Z,16.80
2023-03-17T16:38:20.790Z,15.13
2023-03-17T16:40:53.090Z,13.83
2023-03-17T16:43:31.569Z,14.07
2023-03-17T16:46:00.347Z,10.40
2023-03-17T16:48:27.095Z,12.17
2023-03-17T16:50:54.253Z,15.27
2023-03-17T16:53:21.619Z,14.60
2023-03-17T16:55:48.624Z,17.03
2023-03-17T16:58:19.795Z,11.20
2023-03-17T17:00:48.520Z,16.57
2023-03-17T17:03:15.643Z,12.57
2023-03-17T17:05:43.668Z,12.53
2023-03-17T17:08:10.735Z,14.30
2023-03-17T17:10:38.941Z,12.53
2023-03-17T17:13:07.871Z,15.40
2023-03-17T17:15:36.056Z,12.53
2023-03-17T17:18:15.461Z,11.60
2023-03-17T17:20:43.624Z,13.87
2023-03-17T17:23:16.710Z,14.40
2023-03-17T17:25:44.332Z,11.30
2023-03-17T17:28:12.694Z,14.37
2023-03-17T17:30:42.861Z,12.20
2023-03-17T17:33:09.434Z,12.53
2023-03-17T17:35:38.095Z,12.13
2023-03-17T17:38:05.230Z,12.97
2023-03-17T17:40:32.331Z,14.30
2023-03-17T17:42:59.257Z,15.13
2023-03-17T17:45:26.154Z,12.97
2023-03-17T17:47:52.755Z,17.23
2023-03-17T17:50:25.552Z,15.60
2023-03-17T17:52:52.418Z,15.67
2023-03-17T17:55:19.730Z,13.23
2023-03-17T17:57:46.470Z,11.57
2023-03-17T18:00:16.654Z,13.27
2023-03-17T18:02:43.580Z,13.47
2023-03-17T18:05:11.238Z,16.13
2023-03-17T18:07:38.725Z,20.70
2023-03-17T18:10:06.434Z,17.30
2023-03-17T18:12:33.186Z,12.83
2023-03-17T18:15:00.218Z,13.40
2023-03-17T18:17:27.208Z,19.97
2023-03-17T18:19:54.464Z,12.10
2023-03-17T18:22:21.865Z,12.83
2023-03-17T18:24:49.327Z,13.53
2023-03-17T18:27:16.768Z,13.10
2023-03-17T18:29:43.850Z,13.50
2023-03-17T18:32:12.448Z,11.93
2023-03-17T18:34:43.710Z,12.97
2023-03-17T18:37:13.280Z,12.50
2023-03-17T18:39:41.555Z,16.50
2023-03-17T18:42:11.010Z,19.43
2023-03-17T18:44:39.825Z,24.60
2023-03-17T18:47:07.439Z,23.67
2023-03-17T18:49:34.547Z,19.23
2023-03-17T18:52:01.223Z,21.60
2023-03-17T18:54:28.465Z,22.70
2023-03-17T18:56:55.731Z,22.33
2023-03-17T18:59:22.381Z,17.43
2023-03-17T19:01:49.125Z,21.80
2023-03-17T19:04:16.066Z,19.87
2023-03-17T19:06:42.782Z,18.37
2023-03-17T19:09:10.679Z,23.80
2023-03-17T19:11:39.211Z,26.00
2023-03-17T19:14:10.026Z,30.37
2023-03-17T19:16:37.056Z,25.00
2023-03-17T19:19:03.993Z,27.50
2023-03-17T19:21:31.115Z,27.80
2023-03-17T19:24:01.327Z,15.30
2023-03-17T19:26:28.498Z,17.30
2023-03-17T19:28:56.693Z,13.37
2023-03-17T19:31:24.769Z,19.20
2023-03-17T19:33:51.860Z,14.20
2023-03-17T19:36:18.557Z,15.43
2023-03-17T19:38:45.691Z,15.00
2023-03-17T19:41:12.710Z,14.67
2023-03-17T19:43:41.743Z,14.03
2023-03-17T19:46:11.194Z,15.30
2023-03-17T19:48:38.667Z,19.10
2023-03-17T19:51:05.578Z,17.70
2023-03-17T19:53:32.247Z,16.93
2023-03-17T19:55:58.989Z,13.10
2023-03-17T19:58:25.841Z,16.60
2023-03-17T20:00:52.830Z,15.37
2023-03-17T20:03:19.420Z,16.13
2023-03-17T20:05:46.478Z,17.40
2023-03-17T20:08:14.466Z,12.83
2023-03-17T20:10:43.168Z,11.70
2023-03-17T20:13:09.767Z,14.20
2023-03-17T20:15:36.979Z,11.10
2023-03-17T20:18:04.311Z,11.37
2023-03-17T20:20:31.343Z,12.43
2023-03-17T20:22:58.052Z,14.53
2023-03-17T20:25:24.665Z,14.80
2023-03-17T20:27:51.654Z,17.70
2023-03-17T20:30:18.383Z,13.47
2023-03-17T20:32:46.447Z,18.40
2023-03-17T20:35:13.654Z,15.40
2023-03-17T20:37:42.580Z,12.07
2023-03-17T20:40:10.646Z,16.70
2023-03-17T20:42:37.508Z,13.63
2023-03-17T20:45:05.709Z,13.33
2023-03-17T20:47:32.366Z,12.17
2023-03-17T20:49:59.477Z,15.20
2023-03-17T20:52:30.263Z,11.10
2023-03-17T20:54:59.288Z,15.87
2023-03-17T20:57:26.286Z,14.03
2023-03-17T20:59:52.885Z,14.33
2023-03-17T21:02:20.736Z,14.50
2023-03-17T21:04:48.865Z,12.70
2023-03-17T21:07:18.632Z,19.27
2023-03-17T21:09:46.711Z,15.13
2023-03-17T21:12:15.695Z,14.67
2023-03-17T21:14:42.553Z,16.07
2023-03-17T21:17:11.585Z,22.53
2023-03-17T21:19:38.321Z,17.10
2023-03-17T21:22:05.523Z,17.60
2023-03-17T21:24:35.821Z,17.40
2023-03-17T21:27:05.008Z,14.90
2023-03-17T21:29:33.354Z,12.63
2023-03-17T21:32:01.864Z,13.43
2023-03-17T21:34:30.653Z,20.70
2023-03-17T21:37:01.598Z,15.63
2023-03-17T21:39:29.699Z,16.47
2023-03-17T21:41:56.949Z,14.23
2023-03-17T21:44:23.940Z,14.83
2023-03-17T21:46:50.832Z,15.40
2023-03-17T21:49:18.765Z,16.17
2023-03-17T21:51:46.689Z,14.90
2023-03-17T21:54:13.776Z,13.33
2023-03-17T21:56:41.397Z,17.73
2023-03-17T21:59:10.915Z,18.00
2023-03-17T22:01:39.033Z,13.83
2023-03-17T22:04:06.162Z,12.80
2023-03-17T22:06:34.088Z,14.70
2023-03-17T22:09:01.009Z,15.57
2023-03-17T22:11:27.731Z,14.60
2023-03-17T22:13:54.498Z,15.57
2023-03-17T22:16:21.605Z,17.97
2023-03-17T22:18:48.540Z,15.87
2023-03-17T22:21:15.461Z,20.43
2023-03-17T22:23:42.457Z,15.20
2023-03-17T22:26:13.194Z,15.93
2023-03-17T22:28:41.741Z,23.83
2023-03-17T22:31:14.155Z,17.30
2023-03-17T22:33:41.543Z,15.83
2023-03-17T22:36:08.676Z,16.40
2023-03-17T22:38:37.806Z,17.17
2023-03-17T22:41:11.569Z,19.20
2023-03-17T22:43:39.948Z,18.00
2023-03-17T22:46:06.597Z,18.47
2023-03-17T22:48:35.805Z,14.00
2023-03-17T22:51:08.144Z,17.43
2023-03-17T22:53:35.664Z,15.43
2023-03-17T22:56:02.690Z,16.30
2023-03-17T22:58:29.474Z,13.27
2023-03-17T23:00:56.376Z,17.20
2023-03-17T23:03:24.907Z,16.23
2023-03-17T23:05:54.867Z,19.60
2023-03-17T23:08:21.570Z,17.23
2023-03-17T23:10:49.923Z,17.83
2023-03-17T23:13:18.813Z,18.20
2023-03-17T23:15:46.726Z,23.17
2023-03-17T23:18:13.989Z,19.83
2023-03-17T23:20:40.944Z,29.90
2023-03-17T23:23:08.351Z,19.53
2023-03-17T23:25:36.533Z,21.90
2023-03-17T23:28:05.137Z,19.00
2023-03-17T23:30:32.411Z,18.20
2023-03-17T23:32:59.316Z,19.63
2023-03-17T23:35:26.078Z,23.10
2023-03-17T23:37:52.728Z,17.80
2023-03-17T23:40:19.382Z,19.20
2023-03-17T23:42:50.169Z,20.17
2023-03-17T23:45:18.118Z,20.13
2023-03-17T23:47:46.619Z,21.70
2023-03-17T23:50:14.394Z,17.93
2023-03-17T23:52:42.353Z,17.30
2023-03-17T23:55:10.343Z,18.87
2023-03-17T23:57:37.828Z,17.57
